createdAt,value
2022-11-07T00:01:09.362Z,98330.88
2022-11-07T00:06:55.493Z,98340.91
2022-11-07T00:09:27.834Z,98336.25
2022-11-07T00:12:00.013Z,98335.06
2022-11-07T00:14:32.165Z,98338.19
2022-11-07T00:17:04.319Z,98339.02
2022-11-07T00:19:36.466Z,98340.66
2022-11-07T00:22:08.773Z,98341.37
2022-11-07T00:24:42.007Z,98342.54
2022-11-07T00:27:15.646Z,98340.34
2022-11-07T00:29:48.076Z,98336.52
2022-11-07T00:32:22.189Z,98340.29
2022-11-07T00:34:54.288Z,98340.77
2022-11-07T00:37:27.434Z,98332.60
2022-11-07T00:39:59.430Z,98332.91
2022-11-07T00:42:31.556Z,98337.33
2022-11-07T00:45:04.108Z,98333.40
2022-11-07T00:47:37.479Z,98329.14
2022-11-07T00:50:11.139Z,98332.45
2022-11-07T00:52:43.158Z,98330.41
2022-11-07T00:55:15.254Z,98322.79
2022-11-07T00:57:47.820Z,98323.60
2022-11-07T01:00:20.242Z,98321.19
2022-11-07T01:03:17.445Z,98316.80
2022-11-07T01:05:59.662Z,98313.75
2022-11-07T01:08:32.836Z,98312.08
2022-11-07T01:11:07.722Z,98304.96
2022-11-07T01:13:40.779Z,98300.23
2022-11-07T01:16:13.433Z,98297.02
2022-11-07T01:18:45.467Z,98295.59
2022-11-07T01:21:17.502Z,98288.67
2022-11-07T01:23:49.691Z,98286.83
2022-11-07T01:26:22.176Z,98278.89
2022-11-07T01:28:55.887Z,98280.29
2022-11-07T01:31:27.943Z,98281.48
2022-11-07T01:34:02.785Z,98280.59
2022-11-07T01:36:36.534Z,98276.71
2022-11-07T01:39:08.927Z,98280.14
2022-11-07T01:41:42.425Z,98273.88
2022-11-07T01:45:02.957Z,98266.17
2022-11-07T01:47:39.721Z,98261.33
2022-11-07T01:50:12.471Z,98258.89
2022-11-07T01:52:48.744Z,98252.85
2022-11-07T01:55:25.935Z,98251.96
2022-11-07T01:58:01.766Z,98252.42
2022-11-07T02:00:35.520Z,98246.52
2022-11-07T02:03:11.212Z,98238.21
2022-11-07T02:05:48.211Z,98232.52
2022-11-07T02:08:21.211Z,98229.41
2022-11-07T02:10:54.221Z,98226.95
2022-11-07T02:13:28.916Z,98227.02
2022-11-07T02:16:03.389Z,98221.67
2022-11-07T02:18:38.161Z,98218.17
2022-11-07T02:21:17.156Z,98213.66
2022-11-07T02:23:56.212Z,98216.02
2022-11-07T02:26:28.976Z,98216.50
2022-11-07T02:29:03.306Z,98217.93
2022-11-07T02:31:35.467Z,98218.89
2022-11-07T02:34:13.944Z,98223.11
2022-11-07T02:36:46.003Z,98223.69
2022-11-07T02:39:18.043Z,98225.55
2022-11-07T02:41:51.525Z,98223.17
2022-11-07T02:44:25.542Z,98221.38
2022-11-07T02:46:58.371Z,98222.72
2022-11-07T02:49:30.452Z,98225.13
2022-11-07T02:52:03.787Z,98225.19
2022-11-07T02:54:36.367Z,98222.73
2022-11-07T02:57:08.459Z,98223.59
2022-11-07T02:59:40.638Z,98227.36
2022-11-07T03:02:13.337Z,98229.13
2022-11-07T03:04:50.774Z,98226.85
2022-11-07T03:07:22.944Z,98224.09
2022-11-07T03:09:55.150Z,98228.02
2022-11-07T03:12:27.578Z,98222.29
2022-11-07T03:15:00.065Z,98221.46
2022-11-07T03:17:32.371Z,98222.42
2022-11-07T03:20:05.130Z,98222.55
2022-11-07T03:22:37.608Z,98216.37
2022-11-07T03:25:10.468Z,98212.23
2022-11-07T03:27:50.010Z,98215.86
2022-11-07T03:30:22.699Z,98215.27
2022-11-07T03:32:56.735Z,98214.86
2022-11-07T03:35:29.048Z,98211.59
2022-11-07T03:38:01.220Z,98207.68
2022-11-07T03:40:36.103Z,98206.25
2022-11-07T03:43:08.282Z,98201.67
2022-11-07T03:45:43.448Z,98197.60
2022-11-07T03:48:17.072Z,98193.06
2022-11-07T03:50:49.157Z,98188.52
2022-11-07T03:53:25.353Z,98187.11
2022-11-07T03:55:58.651Z,98182.05
2022-11-07T03:58:30.875Z,98179.33
2022-11-07T04:01:03.752Z,98183.48
2022-11-07T04:03:36.195Z,98181.29
2022-11-07T04:06:08.967Z,98184.84
2022-11-07T04:08:41.243Z,98187.59
2022-11-07T04:11:34.613Z,98190.97
2022-11-07T04:14:24.777Z,98194.39
2022-11-07T04:17:14.807Z,98195.73
2022-11-07T04:19:46.913Z,98196.95
2022-11-07T04:22:19.752Z,98193.71
2022-11-07T04:24:51.964Z,98194.02
2022-11-07T04:27:41.723Z,98191.48
2022-11-07T04:30:20.202Z,98192.20
2022-11-07T04:32:54.132Z,98195.48
2022-11-07T04:35:28.283Z,98198.16
2022-11-07T04:38:03.632Z,98198.88
2022-11-07T04:40:38.820Z,98199.86
2022-11-07T04:43:13.417Z,98200.90
2022-11-07T04:45:46.162Z,98204.27
2022-11-07T04:48:19.214Z,98200.79
2022-11-07T04:50:51.984Z,98202.58
2022-11-07T04:53:24.337Z,98206.05
2022-11-07T04:55:56.440Z,98201.42
2022-11-07T04:58:28.981Z,98201.44
2022-11-07T05:01:01.568Z,98202.17
2022-11-07T05:03:38.859Z,98205.55
2022-11-07T05:06:15.893Z,98208.12
2022-11-07T05:08:50.977Z,98204.34
2022-11-07T05:11:26.633Z,98206.17
2022-11-07T05:13:58.837Z,98206.52
2022-11-07T05:16:32.389Z,98210.27
2022-11-07T05:19:04.981Z,98211.83
2022-11-07T05:21:37.062Z,98212.84
2022-11-07T05:24:15.357Z,98211.73
2022-11-07T05:26:47.972Z,98207.65
2022-11-07T05:29:20.029Z,98211.42
2022-11-07T05:31:54.365Z,98208.33
2022-11-07T05:34:26.538Z,98215.63
2022-11-07T05:36:58.728Z,98216.10
2022-11-07T05:39:33.872Z,98217.38
2022-11-07T05:42:06.923Z,98217.10
2022-11-07T05:44:39.037Z,98217.91
2022-11-07T05:47:13.712Z,98217.67
2022-11-07T05:49:45.868Z,98225.44
2022-11-07T05:52:17.982Z,98234.79
2022-11-07T05:54:50.066Z,98237.59
2022-11-07T05:57:22.098Z,98243.70
2022-11-07T05:59:55.262Z,98245.77
2022-11-07T06:02:27.564Z,98246.84
2022-11-07T06:04:59.743Z,98249.29
2022-11-07T06:07:34.201Z,98250.73
2022-11-07T06:10:07.511Z,98255.89
2022-11-07T06:12:39.594Z,98255.70
2022-11-07T06:15:12.873Z,98251.56
2022-11-07T06:17:44.958Z,98253.24
2022-11-07T06:20:17.488Z,98255.58
2022-11-07T06:22:49.585Z,98259.58
2022-11-07T06:25:24.602Z,98259.88
2022-11-07T06:27:59.765Z,98258.06
2022-11-07T06:30:32.131Z,98256.16
2022-11-07T06:33:05.911Z,98257.78
2022-11-07T06:35:39.122Z,98258.70
2022-11-07T06:38:13.015Z,98260.20
2022-11-07T06:40:45.669Z,98262.03
2022-11-07T06:43:21.642Z,98259.75
2022-11-07T06:45:53.654Z,98252.48
2022-11-07T06:48:25.662Z,98254.52
2022-11-07T06:51:01.880Z,98255.23
2022-11-07T06:53:34.879Z,98259.42
2022-11-07T06:56:10.015Z,98263.06
2022-11-07T06:58:42.612Z,98269.71
2022-11-07T07:01:16.489Z,98270.40
2022-11-07T07:03:48.654Z,98275.52
2022-11-07T07:06:20.846Z,98275.78
2022-11-07T07:08:53.016Z,98275.92
2022-11-07T07:11:25.098Z,98278.52
2022-11-07T07:14:01.931Z,98280.13
2022-11-07T07:16:35.504Z,98281.56
2022-11-07T07:19:07.843Z,98286.09
2022-11-07T07:21:40.006Z,98290.05
2022-11-07T07:24:12.131Z,98285.48
2022-11-07T07:26:44.093Z,98293.23
2022-11-07T07:29:18.872Z,98302.98
2022-11-07T07:31:51.243Z,98302.96
2022-11-07T07:34:23.374Z,98300.98
2022-11-07T07:36:57.898Z,98297.75
2022-11-07T07:39:30.977Z,98300.29
2022-11-07T07:46:56.141Z,98293.45
2022-11-07T07:49:34.835Z,98292.77
2022-11-07T07:52:07.631Z,98292.44
2022-11-07T07:54:45.974Z,98294.97
2022-11-07T07:57:18.173Z,98292.67
2022-11-07T07:59:56.879Z,98293.50
2022-11-07T08:07:10.906Z,98298.88
2022-11-07T08:09:43.160Z,98300.66
2022-11-07T08:12:21.816Z,98302.73
2022-11-07T08:14:53.959Z,98300.05
2022-11-07T08:17:32.897Z,98303.49
2022-11-07T08:20:05.395Z,98302.50
2022-11-07T08:22:44.305Z,98301.14
2022-11-07T08:30:17.618Z,98311.89
2022-11-07T08:37:56.691Z,98334.35
2022-11-07T08:40:29.151Z,98328.05
2022-11-07T08:43:47.588Z,98330.48
2022-11-07T08:46:19.879Z,98332.48
2022-11-07T08:48:51.988Z,98330.89
2022-11-07T08:51:30.902Z,98333.48
2022-11-07T08:54:03.072Z,98333.14
2022-11-07T08:56:41.942Z,98338.58
2022-11-07T08:59:15.219Z,98340.80
2022-11-07T09:02:39.123Z,98341.55
2022-11-07T09:10:26.052Z,98351.88
2022-11-07T09:13:05.819Z,98351.42
2022-11-07T09:15:38.217Z,98345.40
2022-11-07T09:18:16.918Z,98347.90
2022-11-07T09:20:50.529Z,98348.46
2022-11-07T09:23:29.003Z,98351.19
2022-11-07T09:26:03.146Z,98347.83
2022-11-07T09:28:45.629Z,98349.20
2022-11-07T09:32:38.332Z,98340.23
2022-11-07T09:35:52.377Z,98343.84
2022-11-07T09:38:31.535Z,98338.48
2022-11-07T09:45:56.238Z,98348.34
2022-11-07T10:06:45.232Z,98350.35
2022-11-07T10:18:57.643Z,98341.45
2022-11-07T10:30:20.903Z,98323.14
2022-11-07T10:42:33.882Z,98312.87
2022-11-07T10:45:07.693Z,98315.59
2022-11-07T10:57:14.932Z,98278.21
2022-11-07T11:04:26.043Z,98262.54
2022-11-07T11:15:20.812Z,98246.67
2022-11-07T11:22:57.941Z,98240.31
2022-11-07T11:30:43.340Z,98244.02
2022-11-07T11:33:28.777Z,98241.17
2022-11-07T11:52:25.965Z,98220.56
2022-11-07T12:00:20.228Z,98212.55
2022-11-07T12:12:57.012Z,98213.62
2022-11-07T12:25:36.793Z,98191.95
2022-11-07T12:28:34.048Z,98187.55
2022-11-07T12:31:18.693Z,98181.72
2022-11-07T12:34:00.469Z,98182.15
2022-11-07T12:36:47.129Z,98187.11
2022-11-07T12:39:45.815Z,98196.98
2022-11-07T12:42:29.213Z,98198.13
2022-11-07T12:45:12.685Z,98199.11
2022-11-07T12:48:13.030Z,98200.80
2022-11-07T12:50:51.879Z,98212.67
2022-11-07T12:53:43.104Z,98223.00
2022-11-07T12:56:18.753Z,98231.87
2022-11-07T12:58:52.394Z,98249.39
2022-11-07T13:01:30.163Z,98251.02
2022-11-07T13:04:12.171Z,98252.99
2022-11-07T13:06:51.001Z,98260.41
2022-11-07T13:09:30.043Z,98267.14
2022-11-07T13:12:08.235Z,98267.89
2022-11-07T13:14:45.526Z,98274.00
2022-11-07T13:17:21.037Z,98277.93
2022-11-07T13:20:03.780Z,98282.11
2022-11-07T13:22:38.599Z,98288.12
2022-11-07T13:25:28.033Z,98289.27
2022-11-07T13:28:27.888Z,98295.52
2022-11-07T13:31:06.696Z,98303.95
2022-11-07T13:33:40.430Z,98307.66
2022-11-07T13:36:25.095Z,98317.61
2022-11-07T13:38:59.997Z,98324.09
2022-11-07T13:41:32.332Z,98328.09
2022-11-07T13:44:07.272Z,98336.55
2022-11-07T13:46:44.504Z,98339.55
2022-11-07T13:49:21.926Z,98348.37
2022-11-07T13:51:56.664Z,98355.16
2022-11-07T13:59:41.426Z,98358.26
2022-11-07T14:02:21.607Z,98361.50
2022-11-07T14:05:15.168Z,98366.33
2022-11-07T14:07:59.433Z,98367.58
2022-11-07T14:10:34.910Z,98373.60
2022-11-07T14:17:17.170Z,98387.39
2022-11-07T14:21:11.249Z,98391.36
2022-11-07T14:28:22.517Z,98404.75
2022-11-07T14:30:55.245Z,98409.81
2022-11-07T14:33:27.446Z,98409.92
2022-11-07T14:36:08.345Z,98410.20
2022-11-07T14:43:34.622Z,98411.92
2022-11-07T14:46:26.742Z,98417.02
2022-11-07T14:48:59.092Z,98417.48
2022-11-07T15:00:57.318Z,98421.64
2022-11-07T15:03:36.509Z,98419.73
2022-11-07T15:10:00.417Z,98424.28
2022-11-07T15:12:37.835Z,98422.77
2022-11-07T15:15:23.336Z,98421.44
2022-11-07T15:17:58.822Z,98423.23
2022-11-07T15:20:40.326Z,98425.98
2022-11-07T15:23:30.356Z,98424.10
2022-11-07T15:26:11.323Z,98422.89
2022-11-07T15:28:51.388Z,98424.58
2022-11-07T15:31:25.980Z,98424.55
2022-11-07T15:33:59.400Z,98426.56
2022-11-07T15:36:37.337Z,98424.31
2022-11-07T15:39:16.081Z,98422.23
2022-11-07T15:41:48.284Z,98427.71
2022-11-07T15:44:20.375Z,98424.52
2022-11-07T15:46:52.592Z,98423.20
2022-11-07T15:49:26.040Z,98426.98
2022-11-07T15:51:58.258Z,98430.05
2022-11-07T15:54:30.822Z,98429.48
2022-11-07T15:57:08.377Z,98428.36
2022-11-07T15:59:40.577Z,98431.82
2022-11-07T16:02:16.953Z,98428.73
2022-11-07T16:04:49.174Z,98432.14
2022-11-07T16:07:22.758Z,98436.08
2022-11-07T16:09:55.284Z,98434.48
2022-11-07T16:12:27.548Z,98437.67
2022-11-07T16:15:00.354Z,98437.33
2022-11-07T16:17:33.372Z,98439.98
2022-11-07T16:20:06.035Z,98443.60
2022-11-07T16:22:38.116Z,98446.55
2022-11-07T16:25:21.179Z,98444.83
2022-11-07T16:27:56.899Z,98449.35
2022-11-07T16:30:29.520Z,98451.02
2022-11-07T16:33:01.971Z,98453.45
2022-11-07T16:35:34.153Z,98450.52
2022-11-07T16:38:12.509Z,98446.88
2022-11-07T16:40:45.122Z,98448.42
2022-11-07T16:44:07.472Z,98453.42
2022-11-07T16:51:18.516Z,98462.89
2022-11-07T16:54:39.606Z,98462.60
2022-11-07T16:57:19.702Z,98464.94
2022-11-07T16:59:52.766Z,98466.41
2022-11-07T17:11:34.130Z,98470.70
2022-11-07T17:14:06.346Z,98464.83
2022-11-07T17:26:14.368Z,98475.98
2022-11-07T17:29:35.677Z,98476.44
2022-11-07T17:32:14.929Z,98477.35
2022-11-07T17:39:41.882Z,98475.21
2022-11-07T17:42:15.150Z,98478.02
2022-11-07T17:44:53.742Z,98476.27
2022-11-07T17:51:48.372Z,98470.46
2022-11-07T18:03:07.941Z,98474.48
2022-11-07T18:05:40.225Z,98477.36
2022-11-07T18:08:31.599Z,98476.82
2022-11-07T18:11:59.974Z,98477.64
2022-11-07T18:14:39.316Z,98476.25
2022-11-07T18:22:03.798Z,98467.85
2022-11-07T18:33:05.314Z,98476.45
2022-11-07T18:35:44.660Z,98478.47
2022-11-07T18:38:17.264Z,98478.42
2022-11-07T18:49:34.763Z,98484.65
2022-11-07T18:52:13.791Z,98482.98
2022-11-07T18:59:17.379Z,98487.06
2022-11-07T19:01:54.283Z,98485.11
2022-11-07T19:04:26.420Z,98488.37
2022-11-07T19:07:05.875Z,98483.92
2022-11-07T19:09:38.261Z,98481.15
2022-11-07T19:12:16.777Z,98480.29
2022-11-07T19:14:48.868Z,98481.92
2022-11-07T19:17:27.840Z,98486.59
2022-11-07T19:24:35.191Z,98487.86
2022-11-07T19:32:01.212Z,98496.86
2022-11-07T19:34:39.709Z,98500.77
2022-11-07T19:37:12.172Z,98506.86
2022-11-07T19:39:51.761Z,98507.96
2022-11-07T19:46:54.834Z,98508.42
2022-11-07T19:53:35.582Z,98512.77
2022-11-07T19:56:16.936Z,98509.88
2022-11-07T20:03:29.326Z,98514.02
2022-11-07T20:11:23.606Z,98513.65
2022-11-07T20:14:03.741Z,98519.55
2022-11-07T20:17:26.122Z,98522.33
2022-11-07T20:20:08.426Z,98525.26
2022-11-07T20:23:33.839Z,98525.77
2022-11-07T20:34:53.956Z,98540.83
2022-11-07T20:37:26.636Z,98541.05
2022-11-07T20:39:58.680Z,98539.50
2022-11-07T20:42:44.746Z,98540.27
2022-11-07T20:45:17.196Z,98535.16
2022-11-07T20:47:49.819Z,98535.19
2022-11-07T20:50:28.807Z,98540.13
2022-11-07T20:53:01.463Z,98538.23
2022-11-07T20:55:43.158Z,98534.99
2022-11-07T20:59:03.851Z,98534.58
2022-11-07T21:01:42.985Z,98538.02
2022-11-07T21:09:07.099Z,98540.97
2022-11-07T21:11:46.076Z,98540.39
2022-11-07T21:14:18.138Z,98544.50
2022-11-07T21:16:57.491Z,98542.29
2022-11-07T21:19:30.485Z,98541.60
2022-11-07T21:22:08.846Z,98536.96
2022-11-07T21:24:41.033Z,98537.30
2022-11-07T21:27:20.023Z,98534.61
2022-11-07T21:34:51.965Z,98531.23
2022-11-07T21:37:47.299Z,98531.75
2022-11-07T21:40:19.532Z,98535.63
2022-11-07T21:42:54.883Z,98539.69
2022-11-07T21:59:25.256Z,98545.92
2022-11-07T22:01:58.967Z,98544.59
2022-11-07T22:04:31.366Z,98542.12
2022-11-07T22:11:29.781Z,98540.30
2022-11-07T22:14:07.929Z,98532.77
2022-11-07T22:16:40.344Z,98537.51
2022-11-07T22:23:19.944Z,98534.80
2022-11-07T22:25:52.132Z,98530.09
2022-11-07T22:28:31.229Z,98533.08
2022-11-07T22:35:32.786Z,98531.63
2022-11-07T22:43:41.628Z,98526.86
2022-11-07T22:46:16.579Z,98526.15
2022-11-07T22:50:43.169Z,98530.09
2022-11-07T22:53:22.016Z,98534.11
2022-11-07T22:55:54.052Z,98539.60
2022-11-07T22:58:26.323Z,98535.95
2022-11-07T23:00:59.390Z,98533.85
2022-11-07T23:03:31.805Z,98531.61
2022-11-07T23:06:06.324Z,98533.39
2022-11-07T23:08:38.642Z,98531.89
2022-11-07T23:14:07.976Z,98527.77
2022-11-07T23:16:41.705Z,98529.88
2022-11-07T23:19:16.255Z,98531.45
2022-11-07T23:21:49.038Z,98532.98
2022-11-07T23:24:21.787Z,98532.79
2022-11-07T23:26:53.876Z,98532.68
2022-11-07T23:29:26.358Z,98533.95
2022-11-07T23:31:58.392Z,98536.44
2022-11-07T23:34:30.534Z,98536.95
2022-11-07T23:37:03.280Z,98537.45
2022-11-07T23:39:35.293Z,98540.63
2022-11-07T23:42:07.428Z,98538.89
2022-11-07T23:45:00.202Z,98539.39
2022-11-07T23:47:50.879Z,98537.85
2022-11-07T23:50:39.488Z,98537.01
2022-11-07T23:53:28.517Z,98536.63
2022-11-07T23:56:01.664Z,98537.36
2022-11-07T23:58:51.531Z,98536.61
